JJA1514 RJCH-RKSI
Flight info
| Callsign | JJA1514 |
|---|---|
| Flight time | 2h 27m |
| Altitude | 40000 |
| Route | DCT TAPPI Y12 ARIKA Y14 SUGNO Y16 SAPRA Y685 GUKDO GUKDO3C |
| Aircraft | B738/M-SDE2E3FGHIRWXY/LB1 |
Departure
| Time | 2026-05-05 07:18 |
|---|---|
| Airport | Hakodate Airport (RJCH) |
Arrival
| Time | 2026-05-05 09:45 |
|---|---|
| Airport | Incheon International Airport (RKSI) |
| Time | Latitude | Longitude | Altitude | Speed | Heading |
|---|---|---|---|---|---|
| 2026-05-05 07:08 | 41.77351 | 140.81621 | 121 ft | 6 kts | 52° |
| 2026-05-05 07:10 | 41.77352 | 140.81624 | 122 ft | 0 kts | 52° |
| 2026-05-05 07:10 | 41.77354 | 140.81630 | 119 ft | 2 kts | 73° |
| 2026-05-05 07:11 | 41.77337 | 140.81657 | 122 ft | 6 kts | 138° |
| 2026-05-05 07:11 | 41.77312 | 140.81706 | 119 ft | 8 kts | 112° |
| 2026-05-05 07:11 | 41.77289 | 140.81794 | 126 ft | 12 kts | 108° |
| 2026-05-05 07:11 | 41.77262 | 140.81904 | 120 ft | 12 kts | 109° |
| 2026-05-05 07:12 | 41.77233 | 140.82013 | 119 ft | 12 kts | 110° |
| 2026-05-05 07:12 | 41.77206 | 140.82119 | 121 ft | 12 kts | 101° |
| 2026-05-05 07:12 | 41.77185 | 140.82225 | 126 ft | 12 kts | 109° |
| 2026-05-05 07:12 | 41.77159 | 140.82326 | 124 ft | 11 kts | 108° |
| 2026-05-05 07:13 | 41.77135 | 140.82425 | 130 ft | 11 kts | 107° |
| 2026-05-05 07:13 | 41.77112 | 140.82521 | 133 ft | 11 kts | 108° |
| 2026-05-05 07:13 | 41.77088 | 140.82613 | 136 ft | 10 kts | 107° |
| 2026-05-05 07:13 | 41.77064 | 140.82717 | 137 ft | 15 kts | 108° |
| 2026-05-05 07:14 | 41.77031 | 140.82854 | 138 ft | 15 kts | 108° |
| 2026-05-05 07:14 | 41.76998 | 140.82988 | 141 ft | 15 kts | 108° |
| 2026-05-05 07:14 | 41.76967 | 140.83116 | 142 ft | 14 kts | 108° |
| 2026-05-05 07:14 | 41.76937 | 140.83239 | 143 ft | 14 kts | 108° |
| 2026-05-05 07:15 | 41.76908 | 140.83357 | 145 ft | 13 kts | 109° |
| 2026-05-05 07:15 | 41.76880 | 140.83474 | 146 ft | 15 kts | 107° |
| 2026-05-05 07:15 | 41.76844 | 140.83621 | 148 ft | 17 kts | 107° |
| 2026-05-05 07:15 | 41.76809 | 140.83766 | 155 ft | 16 kts | 108° |
| 2026-05-05 07:16 | 41.76772 | 140.83906 | 159 ft | 16 kts | 111° |
| 2026-05-05 07:16 | 41.76684 | 140.83943 | 161 ft | 15 kts | 197° |
| 2026-05-05 07:16 | 41.76609 | 140.83890 | 158 ft | 6 kts | 264° |
| 2026-05-05 07:16 | 41.76615 | 140.83855 | 157 ft | 0 kts | 288° |
| 2026-05-05 07:17 | 41.76615 | 140.83854 | 157 ft | 1 kts | 288° |
| 2026-05-05 07:17 | 41.76644 | 140.83734 | 153 ft | 42 kts | 288° |
| 2026-05-05 07:17 | 41.76813 | 140.83008 | 140 ft | 118 kts | 290° |
| 2026-05-05 07:17 | 41.77149 | 140.81763 | 334 ft | 156 kts | 285° |
| 2026-05-05 07:18 | 41.77407 | 140.80819 | 1008 ft | 149 kts | 284° |
| 2026-05-05 07:18 | 41.77818 | 140.79639 | 2063 ft | 136 kts | 287° |
| 2026-05-05 07:18 | 41.78050 | 140.78431 | 2613 ft | 143 kts | 257° |
| 2026-05-05 07:18 | 41.77496 | 140.77210 | 2896 ft | 170 kts | 230° |
| 2026-05-05 07:19 | 41.76595 | 140.76093 | 3310 ft | 184 kts | 219° |
| 2026-05-05 07:19 | 41.75458 | 140.75215 | 3651 ft | 199 kts | 221° |
| 2026-05-05 07:19 | 41.74278 | 140.74066 | 3911 ft | 223 kts | 223° |
| 2026-05-05 07:19 | 41.72999 | 140.72796 | 4523 ft | 233 kts | 223° |
| 2026-05-05 07:20 | 41.71668 | 140.71487 | 5258 ft | 239 kts | 223° |
| 2026-05-05 07:20 | 41.70316 | 140.70169 | 6092 ft | 242 kts | 223° |
| 2026-05-05 07:20 | 41.68938 | 140.68835 | 6864 ft | 247 kts | 222° |
| 2026-05-05 07:20 | 41.67522 | 140.67468 | 7567 ft | 255 kts | 222° |
| 2026-05-05 07:21 | 41.66063 | 140.66065 | 8303 ft | 262 kts | 222° |
| 2026-05-05 07:21 | 41.64564 | 140.64630 | 9096 ft | 268 kts | 222° |
| 2026-05-05 07:21 | 41.63032 | 140.63166 | 9926 ft | 272 kts | 221° |
| 2026-05-05 07:21 | 41.61463 | 140.61669 | 10533 ft | 286 kts | 221° |
| 2026-05-05 07:22 | 41.59770 | 140.60047 | 10728 ft | 312 kts | 221° |
| 2026-05-05 07:22 | 41.57959 | 140.58319 | 11220 ft | 325 kts | 221° |
| 2026-05-05 07:22 | 41.56089 | 140.56547 | 11985 ft | 330 kts | 220° |
| 2026-05-05 07:22 | 41.54207 | 140.54769 | 12851 ft | 333 kts | 221° |
| 2026-05-05 07:23 | 41.52311 | 140.52978 | 13734 ft | 336 kts | 221° |
| 2026-05-05 07:23 | 41.50397 | 140.51169 | 14532 ft | 339 kts | 221° |
| 2026-05-05 07:23 | 41.48487 | 140.49365 | 15330 ft | 342 kts | 221° |
| 2026-05-05 07:23 | 41.46526 | 140.47513 | 16156 ft | 345 kts | 221° |
| 2026-05-05 07:24 | 41.44565 | 140.45661 | 16997 ft | 347 kts | 221° |
| 2026-05-05 07:24 | 41.42571 | 140.43778 | 17672 ft | 355 kts | 221° |
| 2026-05-05 07:24 | 41.40536 | 140.41855 | 18362 ft | 361 kts | 221° |
| 2026-05-05 07:24 | 41.38477 | 140.39915 | 19027 ft | 365 kts | 221° |
| 2026-05-05 07:25 | 41.36423 | 140.37981 | 19678 ft | 369 kts | 221° |
| 2026-05-05 07:25 | 41.34314 | 140.35997 | 20309 ft | 373 kts | 221° |
| 2026-05-05 07:25 | 41.32184 | 140.33994 | 20923 ft | 378 kts | 221° |
| 2026-05-05 07:25 | 41.30023 | 140.31964 | 21543 ft | 382 kts | 221° |
| 2026-05-05 07:26 | 41.27837 | 140.29913 | 22152 ft | 387 kts | 221° |
| 2026-05-05 07:26 | 41.25619 | 140.27833 | 22737 ft | 391 kts | 221° |
| 2026-05-05 07:26 | 41.23380 | 140.25735 | 23327 ft | 396 kts | 221° |
| 2026-05-05 07:26 | 41.21115 | 140.23614 | 23858 ft | 400 kts | 221° |
| 2026-05-05 07:27 | 41.18824 | 140.21471 | 24329 ft | 404 kts | 221° |
| 2026-05-05 07:27 | 41.16505 | 140.19304 | 24784 ft | 409 kts | 221° |
| 2026-05-05 07:27 | 41.14092 | 140.17241 | 25233 ft | 418 kts | 214° |
| 2026-05-05 07:27 | 41.11435 | 140.15685 | 25704 ft | 428 kts | 204° |
| 2026-05-05 07:28 | 41.08543 | 140.14605 | 26174 ft | 434 kts | 200° |
| 2026-05-05 07:28 | 41.05591 | 140.13613 | 26570 ft | 440 kts | 199° |
| 2026-05-05 07:28 | 41.02602 | 140.12632 | 26992 ft | 444 kts | 199° |
| 2026-05-05 07:28 | 40.99595 | 140.11639 | 27423 ft | 447 kts | 199° |
| 2026-05-05 07:29 | 40.96568 | 140.10626 | 27848 ft | 450 kts | 199° |
| 2026-05-05 07:29 | 40.93523 | 140.09593 | 28248 ft | 454 kts | 199° |
| 2026-05-05 07:29 | 40.90462 | 140.08546 | 28692 ft | 455 kts | 199° |
| 2026-05-05 07:29 | 40.87394 | 140.07493 | 29144 ft | 457 kts | 199° |
| 2026-05-05 07:30 | 40.84302 | 140.06428 | 29458 ft | 461 kts | 200° |
| 2026-05-05 07:30 | 40.78115 | 140.04302 | 30335 ft | 463 kts | 200° |
| 2026-05-05 07:30 | 40.74990 | 140.03230 | 30647 ft | 465 kts | 200° |
| 2026-05-05 07:31 | 40.71847 | 140.02153 | 30982 ft | 467 kts | 200° |
| 2026-05-05 07:31 | 40.68692 | 140.01075 | 31338 ft | 468 kts | 200° |
| 2026-05-05 07:31 | 40.65542 | 139.99999 | 31724 ft | 467 kts | 200° |
| 2026-05-05 07:31 | 40.62399 | 139.98927 | 32197 ft | 465 kts | 200° |
| 2026-05-05 07:32 | 40.59272 | 139.97862 | 32695 ft | 462 kts | 200° |
| 2026-05-05 07:32 | 40.57217 | 139.97163 | 33064 ft | 459 kts | 200° |
| 2026-05-05 07:32 | 40.54133 | 139.96113 | 33601 ft | 456 kts | 200° |
| 2026-05-05 07:32 | 40.51069 | 139.95069 | 34028 ft | 455 kts | 201° |
| 2026-05-05 07:33 | 40.47003 | 139.93685 | 34418 ft | 455 kts | 201° |
| 2026-05-05 07:33 | 40.43977 | 139.92510 | 34734 ft | 449 kts | 207° |
| 2026-05-05 07:33 | 40.42064 | 139.91401 | 34971 ft | 442 kts | 213° |
| 2026-05-05 07:33 | 40.39375 | 139.89571 | 35361 ft | 439 kts | 214° |
| 2026-05-05 07:34 | 40.36686 | 139.87704 | 35713 ft | 437 kts | 214° |
| 2026-05-05 07:34 | 40.34001 | 139.85843 | 36004 ft | 437 kts | 214° |
| 2026-05-05 07:34 | 40.31313 | 139.83999 | 36393 ft | 433 kts | 214° |
| 2026-05-05 07:34 | 40.28645 | 139.82187 | 36803 ft | 431 kts | 213° |
| 2026-05-05 07:35 | 40.25981 | 139.80390 | 37100 ft | 430 kts | 213° |
| 2026-05-05 07:35 | 40.23315 | 139.78597 | 37360 ft | 431 kts | 213° |
| 2026-05-05 07:35 | 40.20650 | 139.76809 | 37663 ft | 430 kts | 213° |
| 2026-05-05 07:35 | 40.17996 | 139.75030 | 38014 ft | 428 kts | 213° |
| 2026-05-05 07:36 | 40.15354 | 139.73261 | 38349 ft | 426 kts | 213° |
| 2026-05-05 07:36 | 40.12719 | 139.71497 | 38630 ft | 425 kts | 213° |
| 2026-05-05 07:36 | 40.10090 | 139.69737 | 38884 ft | 424 kts | 213° |
| 2026-05-05 07:36 | 40.07456 | 139.67976 | 39093 ft | 424 kts | 213° |
| 2026-05-05 07:37 | 40.04867 | 139.66247 | 39252 ft | 424 kts | 213° |
| 2026-05-05 07:37 | 40.02233 | 139.64510 | 39433 ft | 424 kts | 213° |
| 2026-05-05 07:37 | 39.99592 | 139.62791 | 39631 ft | 424 kts | 213° |
| 2026-05-05 07:37 | 39.96949 | 139.61079 | 39816 ft | 423 kts | 213° |
| 2026-05-05 07:38 | 39.94308 | 139.59370 | 39976 ft | 423 kts | 213° |
| 2026-05-05 07:38 | 39.91667 | 139.57661 | 40133 ft | 423 kts | 213° |
| 2026-05-05 07:38 | 39.86365 | 139.54226 | 40138 ft | 426 kts | 213° |
| 2026-05-05 07:39 | 39.81111 | 139.50827 | 40135 ft | 422 kts | 213° |
| 2026-05-05 07:39 | 39.75865 | 139.47439 | 40129 ft | 419 kts | 213° |
| 2026-05-05 07:40 | 39.70655 | 139.44076 | 40140 ft | 417 kts | 213° |
| 2026-05-05 07:40 | 39.65468 | 139.40734 | 40147 ft | 416 kts | 213° |
| 2026-05-05 07:41 | 39.60288 | 139.37400 | 40137 ft | 415 kts | 213° |
| 2026-05-05 07:41 | 39.55106 | 139.34072 | 40151 ft | 416 kts | 213° |
| 2026-05-05 07:42 | 39.49911 | 139.30740 | 40155 ft | 417 kts | 213° |
| 2026-05-05 07:42 | 39.44690 | 139.27399 | 40154 ft | 419 kts | 213° |
| 2026-05-05 07:43 | 39.39455 | 139.24054 | 40159 ft | 420 kts | 213° |
| 2026-05-05 07:43 | 39.34236 | 139.20726 | 40159 ft | 421 kts | 213° |
| 2026-05-05 07:44 | 39.28974 | 139.17376 | 40160 ft | 422 kts | 213° |
| 2026-05-05 07:44 | 39.23702 | 139.14025 | 40154 ft | 422 kts | 213° |
| 2026-05-05 07:45 | 39.18438 | 139.10685 | 40161 ft | 421 kts | 213° |
| 2026-05-05 07:45 | 39.13176 | 139.07353 | 40168 ft | 421 kts | 213° |
| 2026-05-05 07:46 | 39.07960 | 139.04054 | 40162 ft | 420 kts | 213° |
| 2026-05-05 07:46 | 39.02717 | 139.00743 | 40165 ft | 419 kts | 213° |
| 2026-05-05 07:47 | 38.97490 | 138.97449 | 40163 ft | 418 kts | 213° |
| 2026-05-05 07:47 | 38.92271 | 138.94164 | 40146 ft | 417 kts | 213° |
| 2026-05-05 07:48 | 38.87077 | 138.90902 | 40156 ft | 415 kts | 213° |
| 2026-05-05 07:48 | 38.81900 | 138.87655 | 40167 ft | 413 kts | 213° |
| 2026-05-05 07:49 | 38.76739 | 138.84422 | 40167 ft | 412 kts | 213° |
| 2026-05-05 07:49 | 38.71594 | 138.81205 | 40168 ft | 411 kts | 213° |
| 2026-05-05 07:50 | 38.66493 | 138.78021 | 40155 ft | 410 kts | 213° |
| 2026-05-05 07:50 | 38.61372 | 138.74829 | 40170 ft | 409 kts | 213° |
| 2026-05-05 07:51 | 38.56249 | 138.71641 | 40159 ft | 408 kts | 213° |
| 2026-05-05 07:51 | 38.51146 | 138.68470 | 40166 ft | 408 kts | 213° |
| 2026-05-05 07:52 | 38.46043 | 138.65304 | 40172 ft | 408 kts | 213° |
| 2026-05-05 07:52 | 38.40940 | 138.62144 | 40158 ft | 408 kts | 213° |
| 2026-05-05 07:53 | 38.35840 | 138.58990 | 40164 ft | 407 kts | 213° |
| 2026-05-05 07:53 | 38.30744 | 138.55844 | 40173 ft | 407 kts | 213° |
| 2026-05-05 07:54 | 38.25675 | 138.52718 | 40169 ft | 407 kts | 213° |
| 2026-05-05 07:54 | 38.20576 | 138.49580 | 40172 ft | 407 kts | 213° |
| 2026-05-05 07:55 | 38.15481 | 138.46447 | 40168 ft | 407 kts | 213° |
| 2026-05-05 07:55 | 38.10396 | 138.43292 | 40158 ft | 403 kts | 217° |
| 2026-05-05 07:56 | 38.06186 | 138.38867 | 40162 ft | 389 kts | 232° |
| 2026-05-05 07:56 | 38.03159 | 138.33342 | 40178 ft | 382 kts | 244° |
| 2026-05-05 07:57 | 38.00597 | 138.27432 | 40176 ft | 382 kts | 244° |
| 2026-05-05 07:57 | 37.98014 | 138.21519 | 40157 ft | 383 kts | 243° |
| 2026-05-05 07:58 | 37.95410 | 138.15619 | 40168 ft | 384 kts | 243° |
| 2026-05-05 07:58 | 37.92798 | 138.09722 | 40172 ft | 384 kts | 243° |
| 2026-05-05 07:59 | 37.90174 | 138.03815 | 40172 ft | 385 kts | 243° |
| 2026-05-05 07:59 | 37.87546 | 137.97911 | 40171 ft | 385 kts | 243° |
| 2026-05-05 08:00 | 37.84927 | 137.92035 | 40174 ft | 385 kts | 243° |
| 2026-05-05 08:00 | 37.82294 | 137.86138 | 40174 ft | 385 kts | 243° |
| 2026-05-05 08:01 | 37.79657 | 137.80239 | 40171 ft | 385 kts | 243° |
| 2026-05-05 08:01 | 37.77017 | 137.74346 | 40167 ft | 385 kts | 243° |
| 2026-05-05 08:02 | 37.74370 | 137.68448 | 40172 ft | 385 kts | 243° |
| 2026-05-05 08:02 | 37.71719 | 137.62552 | 40171 ft | 385 kts | 243° |
| 2026-05-05 08:03 | 37.69069 | 137.56669 | 40169 ft | 385 kts | 243° |
| 2026-05-05 08:03 | 37.66430 | 137.50821 | 40167 ft | 385 kts | 243° |
| 2026-05-05 08:04 | 37.63776 | 137.44951 | 40168 ft | 385 kts | 243° |
| 2026-05-05 08:04 | 37.61115 | 137.39074 | 40172 ft | 385 kts | 243° |
| 2026-05-05 08:05 | 37.58454 | 137.33208 | 40152 ft | 385 kts | 243° |
| 2026-05-05 08:05 | 37.55789 | 137.27347 | 40169 ft | 385 kts | 243° |
| 2026-05-05 08:06 | 37.53122 | 137.21488 | 40161 ft | 385 kts | 243° |
| 2026-05-05 08:06 | 37.50453 | 137.15637 | 40154 ft | 385 kts | 243° |
| 2026-05-05 08:07 | 37.47792 | 137.09815 | 40147 ft | 386 kts | 243° |
| 2026-05-05 08:07 | 37.45109 | 137.03954 | 40140 ft | 386 kts | 243° |
| 2026-05-05 08:08 | 37.42426 | 136.98104 | 40136 ft | 386 kts | 243° |
| 2026-05-05 08:08 | 37.39742 | 136.92261 | 40119 ft | 386 kts | 243° |
| 2026-05-05 08:09 | 37.37054 | 136.86422 | 40164 ft | 385 kts | 243° |
| 2026-05-05 08:09 | 37.34388 | 136.80640 | 40174 ft | 384 kts | 242° |
| 2026-05-05 08:10 | 37.31699 | 136.74817 | 40164 ft | 385 kts | 243° |
| 2026-05-05 08:10 | 37.29008 | 136.69003 | 40159 ft | 385 kts | 242° |
| 2026-05-05 08:11 | 37.26312 | 136.63186 | 40161 ft | 386 kts | 242° |
| 2026-05-05 08:11 | 37.23611 | 136.57368 | 40170 ft | 386 kts | 242° |
| 2026-05-05 08:12 | 37.20904 | 136.51549 | 40171 ft | 386 kts | 242° |
| 2026-05-05 08:12 | 37.18209 | 136.45766 | 40172 ft | 386 kts | 242° |
| 2026-05-05 08:13 | 37.15496 | 136.39954 | 40165 ft | 385 kts | 242° |
| 2026-05-05 08:13 | 37.12786 | 136.34159 | 40167 ft | 385 kts | 242° |
| 2026-05-05 08:14 | 37.10071 | 136.28362 | 40168 ft | 385 kts | 242° |
| 2026-05-05 08:14 | 37.07357 | 136.22578 | 40171 ft | 385 kts | 242° |
| 2026-05-05 08:15 | 37.04640 | 136.16796 | 40171 ft | 385 kts | 242° |
| 2026-05-05 08:15 | 37.01922 | 136.11023 | 40167 ft | 385 kts | 242° |
| 2026-05-05 08:16 | 36.99203 | 136.05258 | 40158 ft | 384 kts | 242° |
| 2026-05-05 08:16 | 36.96500 | 135.99542 | 40161 ft | 384 kts | 242° |
| 2026-05-05 08:17 | 36.93776 | 135.93794 | 40164 ft | 384 kts | 242° |
| 2026-05-05 08:17 | 36.91054 | 135.88057 | 40164 ft | 384 kts | 242° |
| 2026-05-05 08:18 | 36.88325 | 135.82314 | 40166 ft | 384 kts | 242° |
| 2026-05-05 08:18 | 36.85594 | 135.76576 | 40167 ft | 384 kts | 242° |
| 2026-05-05 08:19 | 36.82860 | 135.70843 | 40166 ft | 384 kts | 242° |
| 2026-05-05 08:19 | 36.80126 | 135.65117 | 40159 ft | 383 kts | 242° |
| 2026-05-05 08:20 | 36.77393 | 135.59405 | 40163 ft | 383 kts | 242° |
| 2026-05-05 08:20 | 36.74661 | 135.53705 | 40163 ft | 383 kts | 242° |
| 2026-05-05 08:21 | 36.71925 | 135.48003 | 40152 ft | 383 kts | 242° |
| 2026-05-05 08:21 | 36.69205 | 135.42349 | 40153 ft | 382 kts | 242° |
| 2026-05-05 08:22 | 36.66929 | 135.37622 | 40159 ft | 382 kts | 242° |
| 2026-05-05 08:22 | 36.63727 | 135.30985 | 40162 ft | 382 kts | 242° |
| 2026-05-05 08:23 | 36.60985 | 135.25312 | 40161 ft | 382 kts | 242° |
| 2026-05-05 08:23 | 36.58705 | 135.20601 | 40161 ft | 382 kts | 242° |
| 2026-05-05 08:24 | 36.55960 | 135.14938 | 40155 ft | 382 kts | 241° |
| 2026-05-05 08:24 | 36.53213 | 135.09281 | 40154 ft | 382 kts | 241° |
| 2026-05-05 08:25 | 36.50465 | 135.03632 | 40149 ft | 381 kts | 241° |
| 2026-05-05 08:25 | 36.47740 | 134.98039 | 40151 ft | 380 kts | 241° |
| 2026-05-05 08:26 | 36.44996 | 134.92417 | 40150 ft | 380 kts | 241° |
| 2026-05-05 08:26 | 36.42253 | 134.86805 | 40153 ft | 380 kts | 241° |
| 2026-05-05 08:27 | 36.39512 | 134.81207 | 40158 ft | 379 kts | 241° |
| 2026-05-05 08:27 | 36.36768 | 134.75613 | 40156 ft | 379 kts | 241° |
| 2026-05-05 08:28 | 36.34020 | 134.70018 | 40152 ft | 379 kts | 241° |
| 2026-05-05 08:28 | 36.31268 | 134.64426 | 40152 ft | 379 kts | 241° |
| 2026-05-05 08:29 | 36.28535 | 134.58879 | 40145 ft | 379 kts | 241° |
| 2026-05-05 08:30 | 36.24405 | 134.50517 | 40143 ft | 379 kts | 241° |
| 2026-05-05 08:30 | 36.21652 | 134.44954 | 40150 ft | 379 kts | 241° |
| 2026-05-05 08:31 | 36.18900 | 134.39400 | 40136 ft | 378 kts | 241° |
| 2026-05-05 08:31 | 36.16142 | 134.33842 | 40155 ft | 378 kts | 241° |
| 2026-05-05 08:32 | 36.13387 | 134.28296 | 40146 ft | 378 kts | 241° |
| 2026-05-05 08:32 | 36.10652 | 134.22801 | 40147 ft | 377 kts | 241° |
| 2026-05-05 08:33 | 36.07897 | 134.17273 | 40149 ft | 377 kts | 241° |
| 2026-05-05 08:33 | 36.05147 | 134.11766 | 40150 ft | 377 kts | 240° |
| 2026-05-05 08:34 | 36.02392 | 134.06253 | 40147 ft | 377 kts | 240° |
| 2026-05-05 08:34 | 35.99637 | 134.00752 | 40148 ft | 377 kts | 240° |
| 2026-05-05 08:35 | 35.97347 | 133.95026 | 40153 ft | 374 kts | 251° |
| 2026-05-05 08:35 | 35.96072 | 133.88788 | 40140 ft | 376 kts | 261° |
| 2026-05-05 08:36 | 35.95789 | 133.82324 | 40144 ft | 378 kts | 265° |
| 2026-05-05 08:36 | 35.95616 | 133.75841 | 40146 ft | 378 kts | 265° |
| 2026-05-05 08:37 | 35.95432 | 133.69347 | 40138 ft | 379 kts | 265° |
| 2026-05-05 08:37 | 35.95233 | 133.62835 | 40152 ft | 380 kts | 265° |
| 2026-05-05 08:38 | 35.95024 | 133.56312 | 40145 ft | 381 kts | 265° |
| 2026-05-05 08:38 | 35.94809 | 133.49781 | 40132 ft | 381 kts | 264° |
| 2026-05-05 08:39 | 35.94591 | 133.43253 | 40147 ft | 380 kts | 264° |
| 2026-05-05 08:39 | 35.94370 | 133.36752 | 40154 ft | 382 kts | 264° |
| 2026-05-05 08:40 | 35.94143 | 133.30200 | 40150 ft | 382 kts | 264° |
| 2026-05-05 08:40 | 35.93913 | 133.23638 | 40150 ft | 382 kts | 264° |
| 2026-05-05 08:41 | 35.93679 | 133.17076 | 40153 ft | 384 kts | 264° |
| 2026-05-05 08:41 | 35.93442 | 133.10496 | 40137 ft | 383 kts | 264° |
| 2026-05-05 08:42 | 35.93202 | 133.03961 | 40142 ft | 382 kts | 264° |
| 2026-05-05 08:42 | 35.92957 | 132.97406 | 40146 ft | 383 kts | 264° |
| 2026-05-05 08:43 | 35.92708 | 132.90828 | 40146 ft | 384 kts | 264° |
| 2026-05-05 08:43 | 35.92456 | 132.84245 | 40145 ft | 384 kts | 264° |
| 2026-05-05 08:44 | 35.92199 | 132.77662 | 40137 ft | 384 kts | 264° |
| 2026-05-05 08:44 | 35.91940 | 132.71076 | 40135 ft | 383 kts | 264° |
| 2026-05-05 08:45 | 35.91678 | 132.64528 | 40138 ft | 382 kts | 264° |
| 2026-05-05 08:45 | 35.91413 | 132.57995 | 40144 ft | 382 kts | 264° |
| 2026-05-05 08:46 | 35.91144 | 132.51454 | 40139 ft | 382 kts | 264° |
| 2026-05-05 08:46 | 35.90873 | 132.44949 | 40140 ft | 382 kts | 264° |
| 2026-05-05 08:47 | 35.90596 | 132.38398 | 40144 ft | 383 kts | 264° |
| 2026-05-05 08:47 | 35.90316 | 132.31831 | 40135 ft | 383 kts | 264° |
| 2026-05-05 08:48 | 35.90031 | 132.25260 | 40131 ft | 384 kts | 264° |
| 2026-05-05 08:48 | 35.89743 | 132.18685 | 40132 ft | 384 kts | 264° |
| 2026-05-05 08:49 | 35.89451 | 132.12102 | 40133 ft | 385 kts | 264° |
| 2026-05-05 08:49 | 35.89156 | 132.05537 | 40119 ft | 386 kts | 264° |
| 2026-05-05 08:50 | 35.88855 | 131.98927 | 40126 ft | 386 kts | 264° |
| 2026-05-05 08:50 | 35.88551 | 131.92315 | 40121 ft | 386 kts | 264° |
| 2026-05-05 08:51 | 35.88243 | 131.85698 | 40124 ft | 386 kts | 264° |
| 2026-05-05 08:51 | 35.87931 | 131.79083 | 40113 ft | 386 kts | 264° |
| 2026-05-05 08:52 | 35.87616 | 131.72471 | 40123 ft | 387 kts | 264° |
| 2026-05-05 08:52 | 35.87296 | 131.65839 | 40120 ft | 387 kts | 264° |
| 2026-05-05 08:53 | 35.86972 | 131.59203 | 40120 ft | 388 kts | 264° |
| 2026-05-05 08:53 | 35.86647 | 131.52611 | 40108 ft | 388 kts | 263° |
| 2026-05-05 08:54 | 35.86315 | 131.45965 | 40117 ft | 388 kts | 263° |
| 2026-05-05 08:54 | 35.85980 | 131.39316 | 40118 ft | 388 kts | 263° |
| 2026-05-05 08:55 | 35.85641 | 131.32673 | 40118 ft | 389 kts | 263° |
| 2026-05-05 08:55 | 35.85298 | 131.26022 | 40117 ft | 389 kts | 263° |
| 2026-05-05 08:56 | 35.84951 | 131.19365 | 40105 ft | 389 kts | 263° |
| 2026-05-05 08:56 | 35.84600 | 131.12700 | 40126 ft | 389 kts | 263° |
| 2026-05-05 08:57 | 35.84248 | 131.06083 | 40115 ft | 390 kts | 263° |
| 2026-05-05 08:57 | 35.83889 | 130.99414 | 40111 ft | 390 kts | 263° |
| 2026-05-05 08:58 | 35.83527 | 130.92742 | 40112 ft | 390 kts | 263° |
| 2026-05-05 08:58 | 35.83160 | 130.86056 | 40115 ft | 391 kts | 263° |
| 2026-05-05 08:59 | 35.82790 | 130.79366 | 40114 ft | 392 kts | 263° |
| 2026-05-05 08:59 | 35.82498 | 130.72667 | 40101 ft | 393 kts | 268° |
| 2026-05-05 09:00 | 35.83182 | 130.65944 | 40102 ft | 396 kts | 275° |
| 2026-05-05 09:00 | 35.84065 | 130.59233 | 40110 ft | 396 kts | 274° |
| 2026-05-05 09:01 | 35.84928 | 130.52526 | 40102 ft | 396 kts | 274° |
| 2026-05-05 09:01 | 35.85771 | 130.45868 | 40118 ft | 395 kts | 274° |
| 2026-05-05 09:02 | 35.86614 | 130.39160 | 40109 ft | 396 kts | 274° |
| 2026-05-05 09:02 | 35.87453 | 130.32447 | 40106 ft | 396 kts | 274° |
| 2026-05-05 09:03 | 35.88288 | 130.25733 | 40098 ft | 396 kts | 274° |
| 2026-05-05 09:03 | 35.89123 | 130.18998 | 40099 ft | 397 kts | 274° |
| 2026-05-05 09:04 | 35.89949 | 130.12297 | 40075 ft | 398 kts | 274° |
| 2026-05-05 09:04 | 35.90778 | 130.05547 | 40084 ft | 398 kts | 274° |
| 2026-05-05 09:05 | 35.91602 | 129.98798 | 40087 ft | 398 kts | 274° |
| 2026-05-05 09:05 | 35.92423 | 129.92040 | 40086 ft | 399 kts | 274° |
| 2026-05-05 09:06 | 35.93244 | 129.85261 | 40082 ft | 399 kts | 274° |
| 2026-05-05 09:06 | 35.94057 | 129.78486 | 40091 ft | 400 kts | 274° |
| 2026-05-05 09:07 | 35.94858 | 129.71724 | 40077 ft | 401 kts | 274° |
| 2026-05-05 09:07 | 35.95663 | 129.64902 | 40067 ft | 401 kts | 274° |
| 2026-05-05 09:08 | 35.96466 | 129.58074 | 40062 ft | 402 kts | 274° |
| 2026-05-05 09:08 | 35.97343 | 129.51238 | 40060 ft | 406 kts | 280° |
| 2026-05-05 09:09 | 35.99400 | 129.44724 | 40059 ft | 415 kts | 292° |
| 2026-05-05 09:09 | 36.02659 | 129.38723 | 40050 ft | 422 kts | 299° |
| 2026-05-05 09:10 | 36.06113 | 129.32846 | 40059 ft | 422 kts | 300° |
| 2026-05-05 09:10 | 36.09550 | 129.26943 | 40038 ft | 422 kts | 299° |
| 2026-05-05 09:11 | 36.12384 | 129.22026 | 40045 ft | 423 kts | 299° |
| 2026-05-05 09:11 | 36.16344 | 129.15124 | 40040 ft | 423 kts | 299° |
| 2026-05-05 09:12 | 36.19196 | 129.10143 | 40039 ft | 423 kts | 299° |
| 2026-05-05 09:12 | 36.23153 | 129.03221 | 40038 ft | 424 kts | 299° |
| 2026-05-05 09:13 | 36.25980 | 128.98267 | 40034 ft | 423 kts | 299° |
| 2026-05-05 09:13 | 36.29380 | 128.92300 | 40026 ft | 423 kts | 299° |
| 2026-05-05 09:14 | 36.32771 | 128.86349 | 40037 ft | 422 kts | 300° |
| 2026-05-05 09:14 | 36.36155 | 128.80385 | 40024 ft | 423 kts | 300° |
| 2026-05-05 09:15 | 36.39550 | 128.74414 | 40022 ft | 423 kts | 300° |
| 2026-05-05 09:15 | 36.42915 | 128.68485 | 40019 ft | 423 kts | 300° |
| 2026-05-05 09:16 | 36.46308 | 128.62496 | 40024 ft | 423 kts | 300° |
| 2026-05-05 09:16 | 36.49694 | 128.56506 | 40017 ft | 424 kts | 300° |
| 2026-05-05 09:17 | 36.53085 | 128.50496 | 40020 ft | 424 kts | 300° |
| 2026-05-05 09:17 | 36.56450 | 128.44520 | 40027 ft | 424 kts | 300° |
| 2026-05-05 09:18 | 36.59843 | 128.38485 | 40020 ft | 425 kts | 300° |
| 2026-05-05 09:18 | 36.63232 | 128.32448 | 40019 ft | 425 kts | 300° |
| 2026-05-05 09:19 | 36.66663 | 128.26431 | 40022 ft | 426 kts | 300° |
| 2026-05-05 09:19 | 36.70117 | 128.20407 | 39707 ft | 432 kts | 300° |
| 2026-05-05 09:19 | 36.71836 | 128.17394 | 39244 ft | 432 kts | 301° |
| 2026-05-05 09:20 | 36.73577 | 128.14341 | 38562 ft | 433 kts | 301° |
| 2026-05-05 09:20 | 36.75330 | 128.11263 | 37796 ft | 435 kts | 301° |
| 2026-05-05 09:20 | 36.77078 | 128.08196 | 37208 ft | 433 kts | 301° |
| 2026-05-05 09:20 | 36.78816 | 128.05141 | 36589 ft | 431 kts | 301° |
| 2026-05-05 09:21 | 36.80552 | 128.02086 | 35861 ft | 432 kts | 302° |
| 2026-05-05 09:21 | 36.82293 | 127.99022 | 35112 ft | 433 kts | 302° |
| 2026-05-05 09:21 | 36.84041 | 127.95939 | 34374 ft | 435 kts | 302° |
| 2026-05-05 09:21 | 36.85786 | 127.92849 | 33577 ft | 436 kts | 302° |
| 2026-05-05 09:22 | 36.87525 | 127.89748 | 32906 ft | 434 kts | 302° |
| 2026-05-05 09:22 | 36.89247 | 127.86672 | 32350 ft | 429 kts | 303° |
| 2026-05-05 09:22 | 36.90952 | 127.83625 | 31777 ft | 426 kts | 303° |
| 2026-05-05 09:22 | 36.92642 | 127.80604 | 31212 ft | 423 kts | 303° |
| 2026-05-05 09:23 | 36.94323 | 127.77607 | 30625 ft | 419 kts | 303° |
| 2026-05-05 09:23 | 36.95992 | 127.74652 | 29874 ft | 413 kts | 303° |
| 2026-05-05 09:23 | 36.97647 | 127.71726 | 28890 ft | 410 kts | 303° |
| 2026-05-05 09:23 | 36.99292 | 127.68814 | 27929 ft | 408 kts | 303° |
| 2026-05-05 09:24 | 37.00899 | 127.65962 | 27112 ft | 403 kts | 304° |
| 2026-05-05 09:24 | 37.02504 | 127.63109 | 26341 ft | 398 kts | 303° |
| 2026-05-05 09:24 | 37.04088 | 127.60281 | 25550 ft | 394 kts | 304° |
| 2026-05-05 09:24 | 37.05650 | 127.57482 | 24891 ft | 388 kts | 303° |
| 2026-05-05 09:25 | 37.07177 | 127.54742 | 24362 ft | 380 kts | 304° |
| 2026-05-05 09:25 | 37.08670 | 127.52062 | 23889 ft | 371 kts | 304° |
| 2026-05-05 09:25 | 37.10132 | 127.49435 | 23377 ft | 364 kts | 304° |
| 2026-05-05 09:25 | 37.11583 | 127.46825 | 22863 ft | 365 kts | 305° |
| 2026-05-05 09:26 | 37.13035 | 127.44211 | 22387 ft | 366 kts | 305° |
| 2026-05-05 09:26 | 37.14504 | 127.41567 | 21920 ft | 375 kts | 305° |
| 2026-05-05 09:26 | 37.16003 | 127.38865 | 21433 ft | 378 kts | 305° |
| 2026-05-05 09:26 | 37.17499 | 127.36168 | 20942 ft | 375 kts | 305° |
| 2026-05-05 09:27 | 37.18984 | 127.33488 | 20470 ft | 372 kts | 305° |
| 2026-05-05 09:27 | 37.20458 | 127.30826 | 19989 ft | 370 kts | 305° |
| 2026-05-05 09:27 | 37.21918 | 127.28186 | 19518 ft | 367 kts | 305° |
| 2026-05-05 09:27 | 37.23370 | 127.25561 | 19075 ft | 365 kts | 305° |
| 2026-05-05 09:28 | 37.24797 | 127.22977 | 18609 ft | 363 kts | 305° |
| 2026-05-05 09:28 | 37.26233 | 127.20375 | 18119 ft | 361 kts | 304° |
| 2026-05-05 09:28 | 37.27650 | 127.17806 | 17564 ft | 354 kts | 304° |
| 2026-05-05 09:28 | 37.29044 | 127.15276 | 16815 ft | 351 kts | 304° |
| 2026-05-05 09:29 | 37.30435 | 127.12752 | 16063 ft | 350 kts | 304° |
| 2026-05-05 09:29 | 37.31813 | 127.10246 | 15406 ft | 346 kts | 304° |
| 2026-05-05 09:29 | 37.33176 | 127.07768 | 14737 ft | 343 kts | 304° |
| 2026-05-05 09:29 | 37.34509 | 127.05341 | 14100 ft | 340 kts | 304° |
| 2026-05-05 09:30 | 37.35849 | 127.02901 | 13402 ft | 340 kts | 303° |
| 2026-05-05 09:30 | 37.37185 | 127.00465 | 12985 ft | 336 kts | 304° |
| 2026-05-05 09:30 | 37.38497 | 126.98074 | 12631 ft | 328 kts | 303° |
| 2026-05-05 09:30 | 37.39774 | 126.95744 | 12025 ft | 321 kts | 303° |
| 2026-05-05 09:31 | 37.41038 | 126.93435 | 11330 ft | 319 kts | 302° |
| 2026-05-05 09:31 | 37.42388 | 126.91242 | 10717 ft | 316 kts | 309° |
| 2026-05-05 09:31 | 37.43849 | 126.89232 | 10356 ft | 304 kts | 311° |
| 2026-05-05 09:31 | 37.45263 | 126.87346 | 10157 ft | 288 kts | 310° |
| 2026-05-05 09:32 | 37.46592 | 126.85563 | 10008 ft | 271 kts | 310° |
| 2026-05-05 09:32 | 37.47859 | 126.83843 | 9682 ft | 263 kts | 310° |
| 2026-05-05 09:32 | 37.49077 | 126.82174 | 9477 ft | 253 kts | 309° |
| 2026-05-05 09:32 | 37.50237 | 126.80576 | 9369 ft | 243 kts | 309° |
| 2026-05-05 09:33 | 37.51366 | 126.79015 | 9268 ft | 239 kts | 309° |
| 2026-05-05 09:33 | 37.52490 | 126.77456 | 9181 ft | 242 kts | 309° |
| 2026-05-05 09:33 | 37.53623 | 126.75886 | 9075 ft | 239 kts | 309° |
| 2026-05-05 09:33 | 37.54701 | 126.74393 | 8867 ft | 230 kts | 309° |
| 2026-05-05 09:34 | 37.55775 | 126.72903 | 8605 ft | 230 kts | 309° |
| 2026-05-05 09:34 | 37.56860 | 126.71395 | 8294 ft | 234 kts | 309° |
| 2026-05-05 09:34 | 37.57958 | 126.69870 | 7964 ft | 234 kts | 309° |
| 2026-05-05 09:34 | 37.59044 | 126.68362 | 7635 ft | 231 kts | 309° |
| 2026-05-05 09:35 | 37.60111 | 126.66879 | 7336 ft | 231 kts | 309° |
| 2026-05-05 09:35 | 37.62302 | 126.63830 | 6690 ft | 238 kts | 309° |
| 2026-05-05 09:35 | 37.63246 | 126.62130 | 6320 ft | 237 kts | 290° |
| 2026-05-05 09:36 | 37.63835 | 126.60185 | 5995 ft | 238 kts | 288° |
| 2026-05-05 09:36 | 37.64439 | 126.58234 | 5658 ft | 239 kts | 289° |
| 2026-05-05 09:36 | 37.65051 | 126.56278 | 5364 ft | 239 kts | 289° |
| 2026-05-05 09:36 | 37.65664 | 126.54338 | 5098 ft | 238 kts | 289° |
| 2026-05-05 09:37 | 37.66276 | 126.52409 | 4832 ft | 236 kts | 289° |
| 2026-05-05 09:37 | 37.66888 | 126.50486 | 4555 ft | 234 kts | 288° |
| 2026-05-05 09:37 | 37.67307 | 126.48529 | 4316 ft | 228 kts | 274° |
| 2026-05-05 09:37 | 37.67470 | 126.46551 | 4116 ft | 224 kts | 274° |
| 2026-05-05 09:38 | 37.67652 | 126.44632 | 3913 ft | 216 kts | 274° |
| 2026-05-05 09:38 | 37.67835 | 126.42782 | 3663 ft | 208 kts | 274° |
| 2026-05-05 09:38 | 37.67995 | 126.41006 | 3476 ft | 198 kts | 268° |
| 2026-05-05 09:38 | 37.67826 | 126.39374 | 3347 ft | 184 kts | 256° |
| 2026-05-05 09:39 | 37.67606 | 126.37816 | 3208 ft | 177 kts | 257° |
| 2026-05-05 09:39 | 37.67400 | 126.36261 | 3111 ft | 181 kts | 257° |
| 2026-05-05 09:39 | 37.67046 | 126.34769 | 3011 ft | 175 kts | 233° |
| 2026-05-05 09:39 | 37.66190 | 126.33743 | 2992 ft | 168 kts | 217° |
| 2026-05-05 09:40 | 37.65258 | 126.32849 | 2999 ft | 171 kts | 217° |
| 2026-05-05 09:40 | 37.64280 | 126.31916 | 3006 ft | 180 kts | 216° |
| 2026-05-05 09:40 | 37.63106 | 126.31390 | 2985 ft | 186 kts | 178° |
| 2026-05-05 09:40 | 37.61938 | 126.32046 | 3008 ft | 187 kts | 150° |
| 2026-05-05 09:41 | 37.60867 | 126.32941 | 2976 ft | 182 kts | 152° |
| 2026-05-05 09:41 | 37.59815 | 126.33833 | 2799 ft | 183 kts | 151° |
| 2026-05-05 09:41 | 37.58766 | 126.34757 | 2559 ft | 184 kts | 150° |
| 2026-05-05 09:41 | 37.57724 | 126.35686 | 2320 ft | 182 kts | 150° |
| 2026-05-05 09:42 | 37.56710 | 126.36593 | 2067 ft | 173 kts | 151° |
| 2026-05-05 09:42 | 37.55774 | 126.37430 | 1850 ft | 162 kts | 151° |
| 2026-05-05 09:42 | 37.54887 | 126.38222 | 1630 ft | 151 kts | 152° |
| 2026-05-05 09:42 | 37.54055 | 126.38964 | 1420 ft | 141 kts | 152° |
| 2026-05-05 09:43 | 37.53264 | 126.39668 | 1275 ft | 135 kts | 151° |
| 2026-05-05 09:43 | 37.52520 | 126.40332 | 1063 ft | 126 kts | 150° |
| 2026-05-05 09:43 | 37.51814 | 126.40962 | 883 ft | 124 kts | 150° |
| 2026-05-05 09:43 | 37.51087 | 126.41607 | 724 ft | 131 kts | 148° |
| 2026-05-05 09:44 | 37.50355 | 126.42270 | 544 ft | 129 kts | 149° |
| 2026-05-05 09:44 | 37.49610 | 126.42935 | 372 ft | 133 kts | 148° |
| 2026-05-05 09:44 | 37.48849 | 126.43617 | 177 ft | 131 kts | 148° |
| 2026-05-05 09:44 | 37.48105 | 126.44284 | 36 ft | 128 kts | 149° |
| 2026-05-05 09:45 | 37.47471 | 126.44840 | 30 ft | 90 kts | 144° |
| 2026-05-05 09:45 | 37.47062 | 126.45205 | 34 ft | 64 kts | 144° |
| 2026-05-05 09:45 | 37.46771 | 126.45463 | 30 ft | 37 kts | 146° |
| 2026-05-05 09:45 | 37.46560 | 126.45587 | 31 ft | 32 kts | 168° |
| 2026-05-05 09:46 | 37.46389 | 126.45611 | 32 ft | 17 kts | 176° |
| 2026-05-05 09:46 | 37.46277 | 126.45638 | 32 ft | 17 kts | 151° |
| 2026-05-05 09:46 | 37.46184 | 126.45718 | 30 ft | 16 kts | 145° |
| 2026-05-05 09:46 | 37.46095 | 126.45796 | 31 ft | 15 kts | 144° |
| 2026-05-05 09:47 | 37.46013 | 126.45819 | 29 ft | 12 kts | 212° |
| 2026-05-05 09:47 | 37.45958 | 126.45733 | 31 ft | 14 kts | 233° |
| 2026-05-05 09:47 | 37.45894 | 126.45621 | 31 ft | 17 kts | 234° |
| 2026-05-05 09:47 | 37.45826 | 126.45510 | 30 ft | 14 kts | 215° |
| 2026-05-05 09:48 | 37.45745 | 126.45453 | 30 ft | 13 kts | 228° |
| 2026-05-05 09:48 | 37.45691 | 126.45360 | 31 ft | 13 kts | 234° |
| 2026-05-05 09:48 | 37.45640 | 126.45271 | 31 ft | 13 kts | 234° |
| 2026-05-05 09:48 | 37.45589 | 126.45182 | 31 ft | 12 kts | 234° |
| 2026-05-05 09:49 | 37.45541 | 126.45096 | 31 ft | 12 kts | 234° |
| 2026-05-05 09:49 | 37.45493 | 126.45013 | 31 ft | 12 kts | 234° |
| 2026-05-05 09:49 | 37.45443 | 126.44925 | 31 ft | 14 kts | 234° |
| 2026-05-05 09:49 | 37.45381 | 126.44814 | 31 ft | 17 kts | 234° |
| 2026-05-05 09:50 | 37.45314 | 126.44695 | 31 ft | 11 kts | 232° |
| 2026-05-05 09:50 | 37.45283 | 126.44646 | 31 ft | 7 kts | 236° |
| 2026-05-05 09:50 | 37.45244 | 126.44581 | 31 ft | 10 kts | 219° |
| 2026-05-05 09:50 | 37.45191 | 126.44569 | 31 ft | 8 kts | 175° |
| 2026-05-05 09:51 | 37.45146 | 126.44575 | 31 ft | 3 kts | 174° |
| 2026-05-05 09:51 | 37.45140 | 126.44576 | 31 ft | 1 kts | 174° |
| 2026-05-05 09:51 | 37.45137 | 126.44576 | 31 ft | 0 kts | 174° |
| 2026-05-05 09:52 | 37.45138 | 126.44576 | 31 ft | 0 kts | 174° |